sensor_id;sensor_type;location;lat;lon;timestamp;P1;durP1;ratioP1;P2;durP2;ratioP2
70199;SDS011;57587;55.688;37.600;2024-03-23T00:51:37;38.28;;;17.52;;
70199;SDS011;57587;55.688;37.600;2024-03-23T00:54:03;35.85;;;16.58;;
70199;SDS011;57587;55.688;37.600;2024-03-23T00:56:29;40.30;;;17.48;;
70199;SDS011;57587;55.688;37.600;2024-03-23T00:58:55;40.53;;;17.42;;
70199;SDS011;57587;55.688;37.600;2024-03-23T01:01:21;40.50;;;17.40;;
70199;SDS011;57587;55.688;37.600;2024-03-23T01:03:47;38.30;;;17.45;;
70199;SDS011;57587;55.688;37.600;2024-03-23T01:06:13;40.88;;;17.58;;
70199;SDS011;57587;55.688;37.600;2024-03-23T01:08:39;39.97;;;17.50;;
70199;SDS011;57587;55.688;37.600;2024-03-23T01:11:05;44.00;;;18.70;;
70199;SDS011;57587;55.688;37.600;2024-03-23T01:13:31;35.83;;;17.75;;
70199;SDS011;57587;55.688;37.600;2024-03-23T01:15:57;38.63;;;17.27;;
70199;SDS011;57587;55.688;37.600;2024-03-23T01:18:23;42.90;;;19.13;;
70199;SDS011;57587;55.688;37.600;2024-03-23T01:20:51;47.85;;;18.15;;
70199;SDS011;57587;55.688;37.600;2024-03-23T01:23:18;39.95;;;17.08;;
70199;SDS011;57587;55.688;37.600;2024-03-23T01:25:50;41.80;;;16.42;;
70199;SDS011;57587;55.688;37.600;2024-03-23T01:28:17;38.28;;;18.00;;
70199;SDS011;57587;55.688;37.600;2024-03-23T01:30:43;42.60;;;18.47;;
70199;SDS011;57587;55.688;37.600;2024-03-23T01:33:09;42.13;;;17.67;;
70199;SDS011;57587;55.688;37.600;2024-03-23T01:35:35;38.85;;;18.52;;
70199;SDS011;57587;55.688;37.600;2024-03-23T01:38:01;38.80;;;17.50;;
70199;SDS011;57587;55.688;37.600;2024-03-23T01:40:27;40.50;;;18.40;;
70199;SDS011;57587;55.688;37.600;2024-03-23T01:42:57;45.97;;;18.67;;
70199;SDS011;57587;55.688;37.600;2024-03-23T01:45:33;35.38;;;17.67;;
70199;SDS011;57587;55.688;37.600;2024-03-23T01:48:00;41.13;;;18.02;;
70199;SDS011;57587;55.688;37.600;2024-03-23T01:50:26;41.60;;;17.77;;
70199;SDS011;57587;55.688;37.600;2024-03-23T01:52:53;37.22;;;17.85;;
70199;SDS011;57587;55.688;37.600;2024-03-23T01:55:19;42.78;;;19.02;;
70199;SDS011;57587;55.688;37.600;2024-03-23T01:57:46;35.38;;;16.50;;
70199;SDS011;57587;55.688;37.600;2024-03-23T02:00:12;38.33;;;17.10;;
70199;SDS011;57587;55.688;37.600;2024-03-23T02:02:42;35.27;;;15.93;;
70199;SDS011;57587;55.688;37.600;2024-03-23T02:05:10;40.28;;;18.52;;
70199;SDS011;57587;55.688;37.600;2024-03-23T02:07:41;40.47;;;18.50;;
70199;SDS011;57587;55.688;37.600;2024-03-23T02:10:08;35.70;;;16.70;;
70199;SDS011;57587;55.688;37.600;2024-03-23T02:12:36;36.22;;;16.15;;
70199;SDS011;57587;55.688;37.600;2024-03-23T02:15:03;36.73;;;16.80;;
70199;SDS011;57587;55.688;37.600;2024-03-23T02:17:33;42.17;;;16.75;;
70199;SDS011;57587;55.688;37.600;2024-03-23T02:20:00;39.28;;;16.75;;
70199;SDS011;57587;55.688;37.600;2024-03-23T02:22:37;39.42;;;16.83;;
70199;SDS011;57587;55.688;37.600;2024-03-23T02:25:06;34.88;;;16.60;;
70199;SDS011;57587;55.688;37.600;2024-03-23T02:27:33;34.50;;;16.87;;
70199;SDS011;57587;55.688;37.600;2024-03-23T02:30:00;38.25;;;17.48;;
70199;SDS011;57587;55.688;37.600;2024-03-23T02:32:28;33.28;;;14.93;;
70199;SDS011;57587;55.688;37.600;2024-03-23T02:34:53;33.33;;;16.90;;
70199;SDS011;57587;55.688;37.600;2024-03-23T02:37:19;38.83;;;17.33;;
70199;SDS011;57587;55.688;37.600;2024-03-23T02:39:45;34.25;;;16.73;;
70199;SDS011;57587;55.688;37.600;2024-03-23T02:42:11;38.33;;;17.95;;
70199;SDS011;57587;55.688;37.600;2024-03-23T02:44:37;36.28;;;16.35;;
70199;SDS011;57587;55.688;37.600;2024-03-23T02:47:03;36.60;;;17.43;;
70199;SDS011;57587;55.688;37.600;2024-03-23T02:49:29;44.33;;;17.58;;
70199;SDS011;57587;55.688;37.600;2024-03-23T02:51:55;38.95;;;17.02;;
70199;SDS011;57587;55.688;37.600;2024-03-23T02:54:21;34.17;;;17.33;;
70199;SDS011;57587;55.688;37.600;2024-03-23T02:56:47;38.72;;;17.58;;
70199;SDS011;57587;55.688;37.600;2024-03-23T02:59:13;42.42;;;17.08;;
70199;SDS011;57587;55.688;37.600;2024-03-23T03:01:39;35.42;;;17.05;;
70199;SDS011;57587;55.688;37.600;2024-03-23T03:04:05;35.85;;;15.88;;
70199;SDS011;57587;55.688;37.600;2024-03-23T03:06:31;39.80;;;17.13;;
70199;SDS011;57587;55.688;37.600;2024-03-23T03:08:57;36.65;;;16.80;;
70199;SDS011;57587;55.688;37.600;2024-03-23T03:11:23;35.75;;;16.02;;
70199;SDS011;57587;55.688;37.600;2024-03-23T03:13:49;32.45;;;15.23;;
70199;SDS011;57587;55.688;37.600;2024-03-23T03:16:16;37.13;;;18.13;;
70199;SDS011;57587;55.688;37.600;2024-03-23T03:18:42;39.15;;;17.27;;
70199;SDS011;57587;55.688;37.600;2024-03-23T03:21:09;34.22;;;16.40;;
70199;SDS011;57587;55.688;37.600;2024-03-23T03:23:37;37.78;;;16.35;;
70199;SDS011;57587;55.688;37.600;2024-03-23T03:26:04;37.75;;;16.45;;
70199;SDS011;57587;55.688;37.600;2024-03-23T03:28:31;38.73;;;17.10;;
70199;SDS011;57587;55.688;37.600;2024-03-23T03:30:59;39.08;;;17.10;;
70199;SDS011;57587;55.688;37.600;2024-03-23T03:33:29;37.42;;;16.70;;
70199;SDS011;57587;55.688;37.600;2024-03-23T03:35:55;34.45;;;15.73;;
70199;SDS011;57587;55.688;37.600;2024-03-23T03:38:21;31.25;;;16.17;;
70199;SDS011;57587;55.688;37.600;2024-03-23T03:40:47;36.93;;;16.57;;
70199;SDS011;57587;55.688;37.600;2024-03-23T03:43:14;35.45;;;17.02;;
70199;SDS011;57587;55.688;37.600;2024-03-23T03:45:40;33.72;;;15.63;;
70199;SDS011;57587;55.688;37.600;2024-03-23T03:48:06;42.63;;;17.98;;
70199;SDS011;57587;55.688;37.600;2024-03-23T03:50:32;34.70;;;16.40;;
70199;SDS011;57587;55.688;37.600;2024-03-23T03:52:58;37.10;;;17.07;;
70199;SDS011;57587;55.688;37.600;2024-03-23T03:55:24;35.72;;;16.52;;
70199;SDS011;57587;55.688;37.600;2024-03-23T03:57:51;36.33;;;17.25;;
70199;SDS011;57587;55.688;37.600;2024-03-23T04:00:17;33.97;;;16.13;;
70199;SDS011;57587;55.688;37.600;2024-03-23T04:02:43;35.50;;;16.57;;
70199;SDS011;57587;55.688;37.600;2024-03-23T04:05:09;32.28;;;17.10;;
70199;SDS011;57587;55.688;37.600;2024-03-23T04:07:35;35.00;;;17.23;;
70199;SDS011;57587;55.688;37.600;2024-03-23T04:10:01;37.58;;;18.42;;
70199;SDS011;57587;55.688;37.600;2024-03-23T04:12:28;33.23;;;16.50;;
70199;SDS011;57587;55.688;37.600;2024-03-23T04:14:54;31.50;;;16.42;;
70199;SDS011;57587;55.688;37.600;2024-03-23T04:17:21;32.20;;;16.05;;
70199;SDS011;57587;55.688;37.600;2024-03-23T04:19:46;35.90;;;17.35;;
70199;SDS011;57587;55.688;37.600;2024-03-23T04:22:14;34.93;;;16.80;;
70199;SDS011;57587;55.688;37.600;2024-03-23T04:24:40;32.65;;;16.10;;
70199;SDS011;57587;55.688;37.600;2024-03-23T04:27:06;29.67;;;14.65;;
70199;SDS011;57587;55.688;37.600;2024-03-23T04:29:32;30.50;;;16.80;;
70199;SDS011;57587;55.688;37.600;2024-03-23T04:31:58;34.40;;;15.87;;
70199;SDS011;57587;55.688;37.600;2024-03-23T04:34:24;29.50;;;14.55;;
70199;SDS011;57587;55.688;37.600;2024-03-23T04:36:50;35.30;;;16.30;;
70199;SDS011;57587;55.688;37.600;2024-03-23T04:39:16;44.00;;;16.27;;
70199;SDS011;57587;55.688;37.600;2024-03-23T04:41:42;29.37;;;13.93;;
70199;SDS011;57587;55.688;37.600;2024-03-23T04:44:08;33.33;;;15.30;;
70199;SDS011;57587;55.688;37.600;2024-03-23T04:46:34;31.00;;;16.25;;
70199;SDS011;57587;55.688;37.600;2024-03-23T04:49:00;29.73;;;15.50;;
70199;SDS011;57587;55.688;37.600;2024-03-23T04:51:26;31.33;;;15.13;;
70199;SDS011;57587;55.688;37.600;2024-03-23T04:53:53;30.30;;;14.95;;
70199;SDS011;57587;55.688;37.600;2024-03-23T04:56:21;28.00;;;15.32;;
70199;SDS011;57587;55.688;37.600;2024-03-23T04:58:49;31.55;;;15.45;;
70199;SDS011;57587;55.688;37.600;2024-03-23T05:01:15;28.40;;;14.27;;
70199;SDS011;57587;55.688;37.600;2024-03-23T05:03:42;31.05;;;15.05;;
70199;SDS011;57587;55.688;37.600;2024-03-23T05:06:08;32.00;;;14.18;;
70199;SDS011;57587;55.688;37.600;2024-03-23T05:08:34;26.77;;;13.82;;
70199;SDS011;57587;55.688;37.600;2024-03-23T05:11:00;35.97;;;15.80;;
70199;SDS011;57587;55.688;37.600;2024-03-23T05:13:26;28.53;;;15.33;;
70199;SDS011;57587;55.688;37.600;2024-03-23T05:15:53;27.70;;;14.32;;
70199;SDS011;57587;55.688;37.600;2024-03-23T05:18:20;31.17;;;15.20;;
70199;SDS011;57587;55.688;37.600;2024-03-23T05:20:46;27.48;;;14.05;;
70199;SDS011;57587;55.688;37.600;2024-03-23T05:23:13;27.20;;;14.17;;
70199;SDS011;57587;55.688;37.600;2024-03-23T05:25:39;27.52;;;14.65;;
70199;SDS011;57587;55.688;37.600;2024-03-23T05:28:05;29.10;;;15.45;;
70199;SDS011;57587;55.688;37.600;2024-03-23T05:30:31;27.17;;;14.75;;
70199;SDS011;57587;55.688;37.600;2024-03-23T05:32:57;27.27;;;15.52;;
70199;SDS011;57587;55.688;37.600;2024-03-23T05:35:23;29.93;;;14.03;;
70199;SDS011;57587;55.688;37.600;2024-03-23T05:37:49;26.10;;;14.52;;
70199;SDS011;57587;55.688;37.600;2024-03-23T05:40:15;28.48;;;14.32;;
70199;SDS011;57587;55.688;37.600;2024-03-23T05:42:41;25.63;;;14.07;;
70199;SDS011;57587;55.688;37.600;2024-03-23T05:45:07;25.33;;;13.30;;
70199;SDS011;57587;55.688;37.600;2024-03-23T05:47:34;26.55;;;14.93;;
70199;SDS011;57587;55.688;37.600;2024-03-23T05:50:00;27.35;;;14.98;;
70199;SDS011;57587;55.688;37.600;2024-03-23T05:52:30;28.80;;;14.65;;
70199;SDS011;57587;55.688;37.600;2024-03-23T05:54:56;27.20;;;14.80;;
70199;SDS011;57587;55.688;37.600;2024-03-23T05:57:24;29.63;;;14.83;;
70199;SDS011;57587;55.688;37.600;2024-03-23T05:59:51;30.70;;;15.13;;
70199;SDS011;57587;55.688;37.600;2024-03-23T06:02:17;27.23;;;14.82;;
70199;SDS011;57587;55.688;37.600;2024-03-23T06:04:45;29.08;;;14.93;;
70199;SDS011;57587;55.688;37.600;2024-03-23T06:07:11;27.20;;;13.40;;
70199;SDS011;57587;55.688;37.600;2024-03-23T06:09:40;27.85;;;14.27;;
70199;SDS011;57587;55.688;37.600;2024-03-23T06:12:08;27.50;;;14.52;;
70199;SDS011;57587;55.688;37.600;2024-03-23T06:14:34;24.77;;;13.05;;
70199;SDS011;57587;55.688;37.600;2024-03-23T06:17:00;26.30;;;13.65;;
70199;SDS011;57587;55.688;37.600;2024-03-23T06:19:27;23.30;;;13.27;;
70199;SDS011;57587;55.688;37.600;2024-03-23T06:21:53;23.50;;;12.10;;
70199;SDS011;57587;55.688;37.600;2024-03-23T06:24:23;25.77;;;13.77;;
70199;SDS011;57587;55.688;37.600;2024-03-23T06:26:50;26.45;;;13.20;;
70199;SDS011;57587;55.688;37.600;2024-03-23T06:29:16;26.48;;;14.05;;
70199;SDS011;57587;55.688;37.600;2024-03-23T06:31:42;24.37;;;13.33;;
70199;SDS011;57587;55.688;37.600;2024-03-23T06:34:08;27.77;;;13.07;;
70199;SDS011;57587;55.688;37.600;2024-03-23T06:36:34;25.05;;;12.60;;
70199;SDS011;57587;55.688;37.600;2024-03-23T06:39:00;23.25;;;12.38;;
70199;SDS011;57587;55.688;37.600;2024-03-23T06:41:26;23.83;;;12.10;;
70199;SDS011;57587;55.688;37.600;2024-03-23T06:43:52;20.35;;;11.80;;
70199;SDS011;57587;55.688;37.600;2024-03-23T06:46:18;18.85;;;11.70;;
70199;SDS011;57587;55.688;37.600;2024-03-23T06:48:44;25.02;;;12.32;;
70199;SDS011;57587;55.688;37.600;2024-03-23T06:51:11;20.70;;;12.07;;
70199;SDS011;57587;55.688;37.600;2024-03-23T06:53:37;20.73;;;12.52;;
70199;SDS011;57587;55.688;37.600;2024-03-23T06:56:03;19.60;;;11.75;;
70199;SDS011;57587;55.688;37.600;2024-03-23T06:58:29;22.02;;;11.90;;
70199;SDS011;57587;55.688;37.600;2024-03-23T07:00:55;17.45;;;9.80;;
70199;SDS011;57587;55.688;37.600;2024-03-23T07:03:21;23.43;;;12.20;;
70199;SDS011;57587;55.688;37.600;2024-03-23T07:05:48;22.40;;;13.50;;
70199;SDS011;57587;55.688;37.600;2024-03-23T07:08:14;22.50;;;12.10;;
70199;SDS011;57587;55.688;37.600;2024-03-23T07:10:46;22.05;;;12.30;;
70199;SDS011;57587;55.688;37.600;2024-03-23T07:13:12;19.47;;;11.50;;
70199;SDS011;57587;55.688;37.600;2024-03-23T07:15:38;15.80;;;10.40;;
70199;SDS011;57587;55.688;37.600;2024-03-23T07:18:04;20.83;;;11.73;;
70199;SDS011;57587;55.688;37.600;2024-03-23T07:20:30;19.58;;;10.57;;
70199;SDS011;57587;55.688;37.600;2024-03-23T07:22:57;18.27;;;11.37;;
70199;SDS011;57587;55.688;37.600;2024-03-23T07:25:23;22.67;;;13.23;;
70199;SDS011;57587;55.688;37.600;2024-03-23T07:27:50;20.50;;;11.50;;
70199;SDS011;57587;55.688;37.600;2024-03-23T07:30:18;17.58;;;11.00;;
70199;SDS011;57587;55.688;37.600;2024-03-23T07:32:44;18.60;;;11.20;;
70199;SDS011;57587;55.688;37.600;2024-03-23T07:35:10;17.58;;;10.98;;
70199;SDS011;57587;55.688;37.600;2024-03-23T07:37:36;20.42;;;11.18;;
70199;SDS011;57587;55.688;37.600;2024-03-23T07:40:02;22.38;;;12.80;;
70199;SDS011;57587;55.688;37.600;2024-03-23T07:42:29;20.45;;;11.73;;
70199;SDS011;57587;55.688;37.600;2024-03-23T07:44:55;18.53;;;11.03;;
70199;SDS011;57587;55.688;37.600;2024-03-23T07:47:22;18.85;;;11.65;;
70199;SDS011;57587;55.688;37.600;2024-03-23T07:49:48;16.55;;;9.95;;
70199;SDS011;57587;55.688;37.600;2024-03-23T07:52:14;20.38;;;11.07;;
70199;SDS011;57587;55.688;37.600;2024-03-23T07:54:40;19.57;;;11.77;;
70199;SDS011;57587;55.688;37.600;2024-03-23T07:57:06;20.50;;;11.95;;
70199;SDS011;57587;55.688;37.600;2024-03-23T07:59:32;19.15;;;10.65;;
70199;SDS011;57587;55.688;37.600;2024-03-23T08:01:59;18.80;;;10.73;;
70199;SDS011;57587;55.688;37.600;2024-03-23T08:04:27;21.33;;;11.57;;
70199;SDS011;57587;55.688;37.600;2024-03-23T08:06:53;21.77;;;12.53;;
70199;SDS011;57587;55.688;37.600;2024-03-23T08:09:19;21.80;;;11.82;;
70199;SDS011;57587;55.688;37.600;2024-03-23T08:11:45;21.73;;;11.48;;
70199;SDS011;57587;55.688;37.600;2024-03-23T08:14:12;16.52;;;10.80;;
70199;SDS011;57587;55.688;37.600;2024-03-23T08:16:38;20.77;;;11.27;;
70199;SDS011;57587;55.688;37.600;2024-03-23T08:19:04;17.87;;;10.47;;
70199;SDS011;57587;55.688;37.600;2024-03-23T08:21:30;20.65;;;11.52;;
70199;SDS011;57587;55.688;37.600;2024-03-23T08:23:56;19.70;;;11.13;;
70199;SDS011;57587;55.688;37.600;2024-03-23T08:26:22;18.58;;;11.05;;
70199;SDS011;57587;55.688;37.600;2024-03-23T08:28:49;16.40;;;10.63;;
70199;SDS011;57587;55.688;37.600;2024-03-23T08:31:15;18.50;;;11.52;;
70199;SDS011;57587;55.688;37.600;2024-03-23T08:33:41;19.65;;;11.45;;
70199;SDS011;57587;55.688;37.600;2024-03-23T08:36:09;17.30;;;9.63;;
70199;SDS011;57587;55.688;37.600;2024-03-23T08:38:38;20.35;;;11.13;;
70199;SDS011;57587;55.688;37.600;2024-03-23T08:41:05;14.60;;;10.40;;
70199;SDS011;57587;55.688;37.600;2024-03-23T08:43:35;16.95;;;9.73;;
70199;SDS011;57587;55.688;37.600;2024-03-23T08:46:23;19.20;;;10.90;;
70199;SDS011;57587;55.688;37.600;2024-03-23T08:48:48;13.93;;;9.52;;
70199;SDS011;57587;55.688;37.600;2024-03-23T08:51:15;17.25;;;10.18;;
70199;SDS011;57587;55.688;37.600;2024-03-23T08:53:42;17.30;;;10.35;;
70199;SDS011;57587;55.688;37.600;2024-03-23T08:56:10;17.08;;;9.90;;
70199;SDS011;57587;55.688;37.600;2024-03-23T08:58:37;14.48;;;9.40;;
70199;SDS011;57587;55.688;37.600;2024-03-23T09:01:06;18.80;;;10.25;;
70199;SDS011;57587;55.688;37.600;2024-03-23T09:03:36;14.70;;;9.40;;
70199;SDS011;57587;55.688;37.600;2024-03-23T09:06:06;12.50;;;8.57;;
70199;SDS011;57587;55.688;37.600;2024-03-23T09:08:37;14.02;;;9.52;;
70199;SDS011;57587;55.688;37.600;2024-03-23T09:11:04;19.70;;;10.18;;
70199;SDS011;57587;55.688;37.600;2024-03-23T09:13:34;17.98;;;9.70;;
70199;SDS011;57587;55.688;37.600;2024-03-23T09:16:01;14.23;;;8.97;;
70199;SDS011;57587;55.688;37.600;2024-03-23T09:18:27;18.45;;;9.57;;
70199;SDS011;57587;55.688;37.600;2024-03-23T09:20:56;14.88;;;9.80;;
70199;SDS011;57587;55.688;37.600;2024-03-23T09:23:22;19.55;;;9.95;;
70199;SDS011;57587;55.688;37.600;2024-03-23T09:25:48;15.40;;;9.40;;
70199;SDS011;57587;55.688;37.600;2024-03-23T09:28:14;14.40;;;9.45;;
70199;SDS011;57587;55.688;37.600;2024-03-23T09:30:40;17.13;;;9.55;;
70199;SDS011;57587;55.688;37.600;2024-03-23T09:33:10;15.75;;;9.50;;
70199;SDS011;57587;55.688;37.600;2024-03-23T09:35:37;16.15;;;9.43;;
70199;SDS011;57587;55.688;37.600;2024-03-23T09:38:07;14.80;;;9.17;;
70199;SDS011;57587;55.688;37.600;2024-03-23T09:40:39;13.70;;;8.45;;
70199;SDS011;57587;55.688;37.600;2024-03-23T09:43:07;15.18;;;9.05;;
70199;SDS011;57587;55.688;37.600;2024-03-23T09:45:44;15.07;;;8.52;;
70199;SDS011;57587;55.688;37.600;2024-03-23T09:48:11;18.20;;;10.73;;
70199;SDS011;57587;55.688;37.600;2024-03-23T09:50:38;16.20;;;9.07;;
70199;SDS011;57587;55.688;37.600;2024-03-23T09:53:08;14.95;;;8.85;;
70199;SDS011;57587;55.688;37.600;2024-03-23T09:55:38;15.23;;;8.55;;
70199;SDS011;57587;55.688;37.600;2024-03-23T09:58:05;16.23;;;9.00;;
70199;SDS011;57587;55.688;37.600;2024-03-23T10:00:32;17.83;;;9.23;;
70199;SDS011;57587;55.688;37.600;2024-03-23T10:02:59;14.47;;;8.70;;
70199;SDS011;57587;55.688;37.600;2024-03-23T10:05:28;13.90;;;8.30;;
70199;SDS011;57587;55.688;37.600;2024-03-23T10:07:57;14.63;;;9.38;;
70199;SDS011;57587;55.688;37.600;2024-03-23T10:10:26;13.93;;;8.68;;
70199;SDS011;57587;55.688;37.600;2024-03-23T10:12:52;13.68;;;8.65;;
70199;SDS011;57587;55.688;37.600;2024-03-23T10:15:23;13.93;;;8.53;;
70199;SDS011;57587;55.688;37.600;2024-03-23T10:17:50;17.73;;;9.07;;
70199;SDS011;57587;55.688;37.600;2024-03-23T10:20:20;14.38;;;8.50;;
70199;SDS011;57587;55.688;37.600;2024-03-23T10:22:50;15.05;;;8.93;;
70199;SDS011;57587;55.688;37.600;2024-03-23T10:25:22;14.77;;;9.32;;
70199;SDS011;57587;55.688;37.600;2024-03-23T10:27:58;15.73;;;9.30;;
70199;SDS011;57587;55.688;37.600;2024-03-23T10:30:25;15.57;;;8.95;;
70199;SDS011;57587;55.688;37.600;2024-03-23T10:33:06;16.15;;;10.00;;
70199;SDS011;57587;55.688;37.600;2024-03-23T10:35:33;15.00;;;8.60;;
70199;SDS011;57587;55.688;37.600;2024-03-23T10:38:01;14.68;;;8.98;;
70199;SDS011;57587;55.688;37.600;2024-03-23T10:40:30;15.90;;;8.90;;
70199;SDS011;57587;55.688;37.600;2024-03-23T10:42:57;17.90;;;9.32;;
70199;SDS011;57587;55.688;37.600;2024-03-23T10:45:24;16.23;;;9.52;;
70199;SDS011;57587;55.688;37.600;2024-03-23T10:47:51;15.52;;;9.55;;
70199;SDS011;57587;55.688;37.600;2024-03-23T10:50:17;15.45;;;9.57;;
70199;SDS011;57587;55.688;37.600;2024-03-23T10:52:46;17.83;;;10.07;;
70199;SDS011;57587;55.688;37.600;2024-03-23T10:55:17;14.93;;;9.27;;
70199;SDS011;57587;55.688;37.600;2024-03-23T10:57:54;15.63;;;9.55;;
70199;SDS011;57587;55.688;37.600;2024-03-23T11:00:23;17.58;;;9.77;;
70199;SDS011;57587;55.688;37.600;2024-03-23T11:02:52;16.23;;;9.70;;
70199;SDS011;57587;55.688;37.600;2024-03-23T11:05:28;18.53;;;9.00;;
70199;SDS011;57587;55.688;37.600;2024-03-23T11:07:57;17.23;;;9.30;;
70199;SDS011;57587;55.688;37.600;2024-03-23T11:10:24;16.92;;;9.77;;
70199;SDS011;57587;55.688;37.600;2024-03-23T11:13:22;16.73;;;9.55;;
70199;SDS011;57587;55.688;37.600;2024-03-23T11:15:49;15.73;;;9.75;;
70199;SDS011;57587;55.688;37.600;2024-03-23T11:18:20;18.43;;;10.03;;
70199;SDS011;57587;55.688;37.600;2024-03-23T11:24:21;16.00;;;10.15;;
70199;SDS011;57587;55.688;37.600;2024-03-23T11:26:48;17.00;;;9.85;;
70199;SDS011;57587;55.688;37.600;2024-03-23T11:29:15;18.60;;;9.93;;
70199;SDS011;57587;55.688;37.600;2024-03-23T11:31:51;15.67;;;10.30;;
70199;SDS011;57587;55.688;37.600;2024-03-23T11:34:19;18.77;;;11.02;;
70199;SDS011;57587;55.688;37.600;2024-03-23T11:36:46;18.38;;;11.05;;
70199;SDS011;57587;55.688;37.600;2024-03-23T11:41:51;20.58;;;11.30;;
70199;SDS011;57587;55.688;37.600;2024-03-23T11:44:18;18.60;;;11.37;;
70199;SDS011;57587;55.688;37.600;2024-03-23T11:46:49;20.40;;;11.05;;
70199;SDS011;57587;55.688;37.600;2024-03-23T11:51:57;19.88;;;11.10;;
70199;SDS011;57587;55.688;37.600;2024-03-23T11:54:24;21.33;;;11.02;;
70199;SDS011;57587;55.688;37.600;2024-03-23T11:56:54;19.50;;;11.17;;
70199;SDS011;57587;55.688;37.600;2024-03-23T11:59:34;19.67;;;10.63;;
70199;SDS011;57587;55.688;37.600;2024-03-23T12:02:05;18.60;;;11.23;;
70199;SDS011;57587;55.688;37.600;2024-03-23T12:04:40;20.08;;;11.25;;
70199;SDS011;57587;55.688;37.600;2024-03-23T12:09:39;21.20;;;11.53;;
70199;SDS011;57587;55.688;37.600;2024-03-23T12:12:15;21.90;;;11.25;;
70199;SDS011;57587;55.688;37.600;2024-03-23T12:17:30;25.80;;;12.05;;
70199;SDS011;57587;55.688;37.600;2024-03-23T12:19:56;20.63;;;11.75;;
70199;SDS011;57587;55.688;37.600;2024-03-23T12:22:23;24.77;;;12.37;;
70199;SDS011;57587;55.688;37.600;2024-03-23T12:24:49;24.23;;;12.35;;
70199;SDS011;57587;55.688;37.600;2024-03-23T12:27:16;22.33;;;11.55;;
70199;SDS011;57587;55.688;37.600;2024-03-23T12:29:42;24.55;;;13.48;;
70199;SDS011;57587;55.688;37.600;2024-03-23T12:32:12;27.87;;;13.63;;
70199;SDS011;57587;55.688;37.600;2024-03-23T12:34:39;25.60;;;12.45;;
70199;SDS011;57587;55.688;37.600;2024-03-23T12:37:09;31.70;;;16.80;;
70199;SDS011;57587;55.688;37.600;2024-03-23T12:39:38;30.55;;;16.45;;
70199;SDS011;57587;55.688;37.600;2024-03-23T12:42:04;24.35;;;12.32;;
70199;SDS011;57587;55.688;37.600;2024-03-23T12:44:30;24.13;;;12.63;;
70199;SDS011;57587;55.688;37.600;2024-03-23T12:46:57;25.30;;;13.32;;
70199;SDS011;57587;55.688;37.600;2024-03-23T12:49:23;22.77;;;12.70;;
70199;SDS011;57587;55.688;37.600;2024-03-23T12:51:56;28.23;;;12.23;;
70199;SDS011;57587;55.688;37.600;2024-03-23T12:54:22;24.77;;;12.75;;
70199;SDS011;57587;55.688;37.600;2024-03-23T12:56:52;24.43;;;12.87;;
70199;SDS011;57587;55.688;37.600;2024-03-23T12:59:18;24.17;;;12.48;;
70199;SDS011;57587;55.688;37.600;2024-03-23T13:01:55;28.00;;;12.75;;
70199;SDS011;57587;55.688;37.600;2024-03-23T13:04:24;26.27;;;12.90;;
70199;SDS011;57587;55.688;37.600;2024-03-23T13:06:50;25.95;;;12.82;;
70199;SDS011;57587;55.688;37.600;2024-03-23T13:09:23;24.87;;;13.07;;
70199;SDS011;57587;55.688;37.600;2024-03-23T13:11:56;24.73;;;13.30;;
70199;SDS011;57587;55.688;37.600;2024-03-23T13:14:22;24.98;;;12.98;;
70199;SDS011;57587;55.688;37.600;2024-03-23T13:16:49;23.95;;;13.60;;
70199;SDS011;57587;55.688;37.600;2024-03-23T13:19:15;22.60;;;12.83;;
70199;SDS011;57587;55.688;37.600;2024-03-23T13:21:48;26.20;;;12.60;;
70199;SDS011;57587;55.688;37.600;2024-03-23T13:24:14;25.40;;;12.95;;
70199;SDS011;57587;55.688;37.600;2024-03-23T13:26:40;28.25;;;12.05;;
70199;SDS011;57587;55.688;37.600;2024-03-23T13:29:06;22.17;;;10.97;;
70199;SDS011;57587;55.688;37.600;2024-03-23T13:31:32;22.85;;;11.45;;
70199;SDS011;57587;55.688;37.600;2024-03-23T13:33:59;19.58;;;10.88;;
70199;SDS011;57587;55.688;37.600;2024-03-23T13:36:28;20.92;;;11.00;;
70199;SDS011;57587;55.688;37.600;2024-03-23T13:39:00;21.17;;;10.88;;
70199;SDS011;57587;55.688;37.600;2024-03-23T13:41:27;19.97;;;10.17;;
70199;SDS011;57587;55.688;37.600;2024-03-23T13:43:53;19.15;;;10.07;;
70199;SDS011;57587;55.688;37.600;2024-03-23T13:46:19;22.58;;;12.25;;
70199;SDS011;57587;55.688;37.600;2024-03-23T13:48:45;19.30;;;11.35;;
70199;SDS011;57587;55.688;37.600;2024-03-23T13:51:11;18.17;;;9.30;;
70199;SDS011;57587;55.688;37.600;2024-03-23T13:53:40;15.13;;;9.45;;
70199;SDS011;57587;55.688;37.600;2024-03-23T13:56:06;18.30;;;10.65;;
70199;SDS011;57587;55.688;37.600;2024-03-23T13:58:32;17.05;;;9.70;;
70199;SDS011;57587;55.688;37.600;2024-03-23T14:00:58;19.88;;;10.57;;
70199;SDS011;57587;55.688;37.600;2024-03-23T14:03:24;15.77;;;9.83;;
70199;SDS011;57587;55.688;37.600;2024-03-23T14:05:50;23.05;;;9.70;;
70199;SDS011;57587;55.688;37.600;2024-03-23T14:08:20;20.98;;;10.43;;
70199;SDS011;57587;55.688;37.600;2024-03-23T14:10:47;19.60;;;9.68;;
70199;SDS011;57587;55.688;37.600;2024-03-23T14:13:13;16.60;;;8.70;;
70199;SDS011;57587;55.688;37.600;2024-03-23T14:15:39;16.03;;;8.67;;
70199;SDS011;57587;55.688;37.600;2024-03-23T14:18:05;15.90;;;8.60;;
70199;SDS011;57587;55.688;37.600;2024-03-23T14:20:31;16.98;;;9.32;;
70199;SDS011;57587;55.688;37.600;2024-03-23T14:22:57;18.75;;;9.50;;
70199;SDS011;57587;55.688;37.600;2024-03-23T14:25:23;16.23;;;9.57;;
70199;SDS011;57587;55.688;37.600;2024-03-23T14:27:57;17.50;;;9.90;;
70199;SDS011;57587;55.688;37.600;2024-03-23T14:30:23;16.98;;;9.77;;
70199;SDS011;57587;55.688;37.600;2024-03-23T14:32:49;17.15;;;9.73;;
70199;SDS011;57587;55.688;37.600;2024-03-23T14:35:16;15.25;;;9.02;;
70199;SDS011;57587;55.688;37.600;2024-03-23T14:37:42;15.13;;;8.90;;
70199;SDS011;57587;55.688;37.600;2024-03-23T14:40:09;16.85;;;8.82;;
70199;SDS011;57587;55.688;37.600;2024-03-23T14:42:38;17.90;;;9.45;;
70199;SDS011;57587;55.688;37.600;2024-03-23T14:45:04;17.45;;;9.70;;
70199;SDS011;57587;55.688;37.600;2024-03-23T14:47:31;16.45;;;9.68;;
70199;SDS011;57587;55.688;37.600;2024-03-23T14:49:57;16.63;;;9.30;;
70199;SDS011;57587;55.688;37.600;2024-03-23T14:52:24;17.42;;;9.27;;
70199;SDS011;57587;55.688;37.600;2024-03-23T14:54:50;18.73;;;10.05;;
70199;SDS011;57587;55.688;37.600;2024-03-23T14:57:16;16.98;;;9.40;;
70199;SDS011;57587;55.688;37.600;2024-03-23T14:59:44;17.42;;;10.18;;
70199;SDS011;57587;55.688;37.600;2024-03-23T15:02:10;15.63;;;9.47;;
70199;SDS011;57587;55.688;37.600;2024-03-23T15:04:38;20.90;;;11.77;;
70199;SDS011;57587;55.688;37.600;2024-03-23T15:07:07;24.27;;;13.65;;
70199;SDS011;57587;55.688;37.600;2024-03-23T15:09:33;15.90;;;9.43;;
70199;SDS011;57587;55.688;37.600;2024-03-23T15:11:59;15.35;;;9.40;;
70199;SDS011;57587;55.688;37.600;2024-03-23T15:14:25;16.43;;;9.23;;
70199;SDS011;57587;55.688;37.600;2024-03-23T15:16:51;16.58;;;8.88;;